Time;durP1;ratioP1;P1;durP2;ratioP2;P2;SDS_P1;SDS_P2;PMS_P1;PMS_P2;Temp;Humidity;BMP_temperature;BMP_pressure;BME280_temperature;BME280_humidity;BME280_pressure;Samples;Min_cycle;Max_cycle;Signal;HPM_P1;HPM_P2
2022/05/20 00:02:33;;;;;;;6.70;2.20;;;10.80;95.90;;;;;;4821951;29;20018;-82
2022/05/20 00:05:20;;;;;;;6.28;2.08;;;;;;;;;;4821915;29;20031;-82
2022/05/20 00:08:04;;;;;;;3.85;1.70;;;9.70;94.60;;;;;;4821410;29;20050;-83
2022/05/20 00:10:36;;;;;;;6.23;1.97;;;9.20;95.20;;;;;;4806605;29;20035;-83
2022/05/20 00:13:06;;;;;;;12.93;6.88;;;9.60;94.70;;;;;;4806908;29;20047;-82
2022/05/20 00:16:09;;;;;;;9.02;3.13;;;9.50;94.80;;;;;;4821190;29;20064;-82
2022/05/20 00:18:58;;;;;;;2.90;1.48;;;9.50;94.70;;;;;;4752996;30;20198;-82
2022/05/20 00:21:37;;;;;;;4.93;1.90;;;9.80;95.00;;;;;;4829128;23;20049;-84
2022/05/20 00:24:07;;;;;;;6.18;2.15;;;9.40;95.80;;;;;;4854681;29;20590;-83
2022/05/20 00:26:33;;;;;;;5.63;1.60;;;9.40;95.50;;;;;;4853696;29;20025;-83
2022/05/20 00:28:59;;;;;;;6.53;1.75;;;;;;;;;;4853486;29;20032;-83
2022/05/20 00:31:37;;;;;;;3.38;1.35;;;9.20;95.70;;;;;;4853976;29;20041;-83
2022/05/20 00:34:04;;;;;;;4.57;1.77;;;;;;;;;;4854111;29;20061;-83
2022/05/20 00:36:31;;;;;;;5.68;2.08;;;9.10;95.90;;;;;;4856461;29;20291;-83
2022/05/20 00:39:00;;;;;;;5.10;1.90;;;9.00;96.40;;;;;;4855202;29;20041;-83
2022/05/20 00:41:26;;;;;;;6.20;2.22;;;9.00;96.10;;;;;;4854330;29;20030;-82
2022/05/20 00:44:07;;;;;;;6.40;2.00;;;9.00;96.20;;;;;;4855340;29;20049;-83
2022/05/20 00:46:34;;;;;;;5.70;2.13;;;9.00;96.90;;;;;;4874316;29;20022;-83
2022/05/20 00:49:17;;;;;;;3.47;1.25;;;9.00;95.90;;;;;;4903654;24;20337;-81
2022/05/20 00:51:58;;;;;;;2.22;1.23;;;9.00;95.90;;;;;;4854992;29;20053;-86
2022/05/20 00:55:19;;;;;;;3.75;1.90;;;9.00;95.90;;;;;;4853516;29;20054;-83
2022/05/20 00:58:14;;;;;;;4.43;1.85;;;9.00;95.90;;;;;;4754642;30;20035;-83
2022/05/20 01:00:55;;;;;;;6.63;2.00;;;10.50;96.70;;;;;;4722795;30;20041;-83
2022/05/20 01:03:47;;;;;;;4.90;1.88;;;9.00;95.80;;;;;;4725431;30;20041;-84
2022/05/20 01:06:27;;;;;;;2.13;1.13;;;8.90;96.00;;;;;;4796711;24;20088;-80
2022/05/20 01:09:08;;;;;;;5.05;1.33;;;8.80;96.00;;;;;;4852597;29;20031;-81
2022/05/20 01:11:51;;;;;;;5.10;1.85;;;8.80;97.30;;;;;;4852412;29;20478;-82
2022/05/20 01:14:25;;;;;;;5.57;2.83;;;8.80;96.40;;;;;;4871531;29;20030;-83
2022/05/20 01:20:13;;;;;;;4.32;1.60;;;;;;;;;;4870067;29;20041;-83
2022/05/20 01:23:04;;;;;;;3.67;1.40;;;8.70;96.50;;;;;;4854532;29;20042;-83
2022/05/20 01:25:31;;;;;;;3.67;2.08;;;;;;;;;;4868525;29;20029;-82
2022/05/20 01:42:34;;;;;;;9.30;2.00;;;8.50;96.90;;;;;;4862710;29;20041;-83
2022/05/20 01:45:52;;;;;;;3.97;1.85;;;8.50;96.90;;;;;;4870900;29;20049;-83
2022/05/20 01:49:25;;;;;;;5.57;1.48;;;8.40;96.90;;;;;;4781784;30;20067;-82
2022/05/20 01:52:51;;;;;;;5.75;2.35;;;8.40;96.90;;;;;;4796988;29;20058;-83
2022/05/20 01:55:58;;;;;;;2.85;1.35;;;8.70;97.40;;;;;;4761320;30;20068;-83
2022/05/20 01:59:19;;;;;;;5.00;1.95;;;10.20;97.80;;;;;;4714552;30;20097;-84
2022/05/20 02:02:25;;;;;;;3.00;1.23;;;8.90;97.60;;;;;;4639239;30;20067;-82
2022/05/20 02:05:22;;;;;;;3.25;1.50;;;9.40;97.70;;;;;;4640494;30;20047;-81
2022/05/20 02:08:20;;;;;;;1.95;1.30;;;8.10;97.70;;;;;;4640836;30;20079;-82
2022/05/20 02:11:20;;;;;;;2.25;1.10;;;8.20;97.70;;;;;;4641759;31;20182;-83
2022/05/20 02:14:23;;;;;;;4.15;1.42;;;8.90;98.10;;;;;;4604044;31;20054;-83
2022/05/20 02:17:33;;;;;;;4.45;1.38;;;7.50;97.70;;;;;;4619582;31;20576;-83
2022/05/20 02:20:54;;;;;;;3.95;1.55;;;8.10;98.00;;;;;;4621049;31;20071;-83
2022/05/20 02:23:44;;;;;;;6.82;1.90;;;7.90;98.10;;;;;;4633936;30;20794;-82
2022/05/20 03:06:20;;;;;;;5.65;1.95;;;8.30;99.70;;;;;;4847708;29;20062;-81
2022/05/20 03:09:21;;;;;;;3.38;1.20;;;8.30;99.50;;;;;;4833097;29;20534;-81
2022/05/20 03:12:08;;;;;;;2.92;1.13;;;7.30;99.70;;;;;;4796275;29;20042;-81
2022/05/20 03:14:52;;;;;;;3.33;1.80;;;7.30;99.60;;;;;;4793540;29;20076;-80
2022/05/20 03:17:33;;;;;;;4.55;1.80;;;7.30;99.10;;;;;;4842137;24;20057;-82
2022/05/20 03:20:14;;;;;;;1.88;1.40;;;7.30;99.10;;;;;;4835951;29;20034;-80
2022/05/20 03:41:45;;;;;;;6.68;1.52;;;7.20;99.50;;;;;;5149738;23;20050;-82
2022/05/20 03:53:23;;;;;;;4.88;1.67;;;7.10;99.60;;;;;;3984643;27;20072;-82
2022/05/20 03:59:53;;;;;;;3.42;1.20;;;7.20;99.20;;;;;;4706989;30;20060;-82
2022/05/20 04:02:31;;;;;;;3.85;1.35;;;7.30;99.20;;;;;;4686933;30;20050;-82
2022/05/20 04:05:13;;;;;;;4.68;1.20;;;7.20;99.50;;;;;;4705676;30;20038;-82
2022/05/20 04:07:41;;;;;;;4.82;2.05;;;7.30;99.40;;;;;;4690202;30;20064;-82
2022/05/20 04:10:19;;;;;;;2.40;1.20;;;7.60;99.90;;;;;;4705927;30;20038;-82
2022/05/20 04:13:39;;;;;;;3.05;1.20;;;7.60;99.30;;;;;;4862166;24;20137;-82
2022/05/20 04:16:09;;;;;;;5.55;1.35;;;7.30;98.90;;;;;;4832883;29;20097;-82
2022/05/20 04:18:37;;;;;;;3.60;1.10;;;;;;;;;;4831851;29;20037;-82
2022/05/20 04:21:05;;;;;;;1.27;1.00;;;7.70;98.40;;;;;;4793352;30;20050;-82
2022/05/20 04:23:41;;;;;;;5.35;1.88;;;7.70;98.80;;;;;;4792330;29;20051;-81
2022/05/20 04:26:23;;;;;;;4.30;1.80;;;8.30;98.70;;;;;;4773345;30;20360;-81
2022/05/20 04:28:53;;;;;;;5.90;3.00;;;7.40;98.10;;;;;;4810085;24;20050;-83
2022/05/20 04:32:13;;;;;;;11.93;4.00;;;7.90;98.30;;;;;;4845179;29;20062;-82
2022/05/20 04:34:59;;;;;;;10.02;3.30;;;8.10;97.50;;;;;;4845762;29;20036;-82
2022/05/20 04:37:26;;;;;;;29.30;10.13;;;8.30;98.00;;;;;;4870669;24;20522;-82
2022/05/20 06:42:19;;;;;;;9.68;2.75;;;13.90;85.70;;;;;;4864439;29;20120;-88
2022/05/20 06:49:42;;;;;;;6.07;3.03;;;15.80;85.10;;;;;;4864495;29;20132;-86
2022/05/20 07:16:30;;;;;;;7.03;3.00;;;15.90;76.30;;;;;;5709832;23;20101;-85
2022/05/20 07:19:11;;;;;;;6.78;2.83;;;16.10;74.90;;;;;;4879245;29;20029;-89
2022/05/20 07:24:22;;;;;;;7.80;2.65;;;16.60;72.60;;;;;;4875274;23;20060;-93
2022/05/20 07:27:00;;;;;;;7.55;2.75;;;16.60;74.10;;;;;;4871656;29;20048;-91
2022/05/20 07:34:37;;;;;;;6.20;2.75;;;;;;;;;;4139933;27;20050;-85
2022/05/20 07:37:37;;;;;;;7.75;2.92;;;17.20;68.30;;;;;;4814260;29;20185;-91
2022/05/20 07:40:25;;;;;;;9.95;4.50;;;18.60;69.70;;;;;;4797687;29;20030;-86
2022/05/20 07:42:57;;;;;;;10.55;3.35;;;17.40;67.80;;;;;;4938402;23;20474;-90
2022/05/20 07:46:00;;;;;;;8.98;3.67;;;17.30;66.90;;;;;;4811432;29;20230;-91
2022/05/20 07:51:36;;;;;;;8.55;3.05;;;17.50;65.70;;;;;;4853010;23;20084;-84
2022/05/20 07:54:30;;;;;;;7.45;3.00;;;19.00;67.30;;;;;;4849741;29;20509;-86
2022/05/20 07:57:01;;;;;;;6.25;2.92;;;18.20;63.60;;;;;;4978440;24;20153;-82
2022/05/20 08:07:50;;;;;;;9.20;3.53;;;18.70;61.20;;;;;;4931836;23;20061;-88
2022/05/20 08:12:48;;;;;;;8.55;2.58;;;19.00;59.40;;;;;;5079650;23;20138;-84
2022/05/20 08:31:06;;;;;;;3.92;2.35;;;20.50;53.50;;;;;;4853278;23;20125;-88
2022/05/20 08:33:32;;;;;;;6.63;2.60;;;21.10;54.00;;;;;;4842337;23;20202;-86
2022/05/20 08:36:49;;;;;;;4.13;2.03;;;21.10;51.20;;;;;;4830985;29;20068;-86
2022/05/20 08:39:14;;;;;;;8.07;2.95;;;21.20;51.00;;;;;;4756588;29;20199;-86
2022/05/20 08:41:52;;;;;;;4.32;2.20;;;21.00;51.10;;;;;;4772329;30;20111;-83
2022/05/20 08:44:25;;;;;;;7.07;2.55;;;21.10;50.30;;;;;;4757001;29;20027;-86
2022/05/20 08:47:21;;;;;;;10.30;2.70;;;21.30;51.10;;;;;;4756826;30;20216;-85
2022/05/20 08:49:47;;;;;;;6.75;2.22;;;20.90;50.80;;;;;;4757434;30;20598;-85
2022/05/20 08:52:13;;;;;;;7.28;2.78;;;21.90;51.30;;;;;;4756938;30;20123;-85
2022/05/20 08:54:41;;;;;;;7.05;3.08;;;22.10;50.30;;;;;;4757168;30;20179;-89
2022/05/20 08:57:16;;;;;;;5.40;2.13;;;22.30;49.90;;;;;;4756230;29;20059;-89
2022/05/20 08:59:42;;;;;;;5.80;2.20;;;22.50;47.90;;;;;;4759547;30;20034;-88
2022/05/20 09:05:31;;;;;;;5.97;2.70;;;23.00;48.70;;;;;;4956937;23;20596;-87
2022/05/20 09:08:07;;;;;;;5.63;1.80;;;23.00;47.40;;;;;;4832938;29;20021;-85
2022/05/20 09:11:00;;;;;;;4.90;1.92;;;22.80;45.20;;;;;;4831164;29;20052;-90
2022/05/20 09:16:26;;;;;;;7.05;2.45;;;23.10;42.90;;;;;;4847466;29;20086;-87
2022/05/20 09:19:11;;;;;;;7.82;2.25;;;23.40;45.20;;;;;;4830999;29;20104;-85
2022/05/20 09:21:40;;;;;;;3.53;1.55;;;23.40;43.50;;;;;;4831002;29;20041;-86
2022/05/20 09:24:21;;;;;;;6.20;2.15;;;23.60;41.30;;;;;;4830924;29;20029;-86
2022/05/20 09:27:12;;;;;;;4.65;1.80;;;24.00;40.90;;;;;;4830567;29;20033;-86
2022/05/20 09:29:59;;;;;;;3.78;1.55;;;24.20;37.70;;;;;;4830895;29;20037;-83
2022/05/20 09:32:43;;;;;;;5.10;1.67;;;23.70;38.80;;;;;;4831327;29;20026;-85
2022/05/20 12:43:06;;;;;;;1.88;0.80;;;33.20;22.50;;;;;;4559300;23;20041;-82
2022/05/20 12:45:56;;;;;;;3.22;1.25;;;34.00;23.40;;;;;;4848584;29;20045;-90
2022/05/20 12:52:04;;;;;;;1.00;0.60;;;33.60;23.40;;;;;;5073880;23;20114;-89
2022/05/20 13:03:43;;;;;;;5.25;1.38;;;33.80;22.80;;;;;;4964405;23;20061;-84
2022/05/20 13:11:22;;;;;;;1.58;0.60;;;33.50;23.40;;;;;;5830754;23;20009;-89
2022/05/20 13:13:56;;;;;;;1.15;0.70;;;33.50;23.00;;;;;;4832823;29;20090;-87
2022/05/20 13:17:05;;;;;;;1.50;0.70;;;33.80;23.30;;;;;;4832219;29;20687;-82
2022/05/20 13:19:59;;;;;;;1.55;0.77;;;34.20;23.30;;;;;;4758125;30;20043;-85
2022/05/20 13:25:09;;;;;;;2.92;1.10;;;33.50;23.70;;;;;;5191587;23;20060;-93
2022/05/20 13:27:46;;;;;;;3.75;1.00;;;33.40;24.30;;;;;;4831985;29;20025;-86
2022/05/20 13:30:17;;;;;;;1.27;0.82;;;33.40;24.40;;;;;;4848500;29;20120;-84
2022/05/20 13:32:43;;;;;;;3.30;1.15;;;32.70;24.50;;;;;;4831909;29;20064;-88
2022/05/20 13:35:09;;;;;;;1.77;0.88;;;32.40;24.90;;;;;;4832091;29;20680;-91
2022/05/20 13:37:43;;;;;;;2.47;0.90;;;32.40;25.00;;;;;;4832165;29;20081;-91
2022/05/20 13:40:34;;;;;;;1.73;0.90;;;32.40;25.40;;;;;;4831894;29;20018;-87
2022/05/20 13:43:26;;;;;;;1.42;0.82;;;33.00;25.20;;;;;;4831431;29;20072;-88
2022/05/20 13:53:38;;;;;;;;;;;;;;;;;;;;;
2022/05/20 13:56:13;;;;;;;2.25;1.10;;;36.00;26.60;;;;;;4666662;30;20052;-84
2022/05/20 14:06:29;;;;;;;0.93;0.80;;;33.50;23.50;;;;;;4684590;30;20046;-89
2022/05/20 14:21:17;;;;;;;1.45;0.68;;;38.40;24.20;;;;;;4907147;23;20522;-88
2022/05/20 14:23:48;;;;;;;2.55;1.08;;;38.60;25.30;;;;;;4976359;24;20069;-90
2022/05/20 14:26:27;;;;;;;2.00;0.90;;;38.60;24.90;;;;;;4829782;29;20022;-89
2022/05/20 14:28:53;;;;;;;1.88;0.93;;;38.30;24.90;;;;;;4812108;29;20022;-91
2022/05/20 14:31:55;;;;;;;2.13;1.00;;;38.10;25.20;;;;;;4812399;29;20027;-89
2022/05/20 14:34:58;;;;;;;2.80;0.93;;;37.60;24.70;;;;;;4808320;29;20045;-84
2022/05/20 14:44:35;;;;;;;0.95;0.70;;;39.40;25.50;;;;;;5453584;24;20133;-88
2022/05/20 14:52:47;;;;;;;3.45;1.38;;;39.40;25.10;;;;;;5062757;23;20054;-90
2022/05/20 14:55:26;;;;;;;2.95;1.00;;;39.40;25.10;;;;;;4834251;29;20481;-83
2022/05/20 14:58:11;;;;;;;3.00;1.55;;;38.50;25.40;;;;;;4826131;29;20026;-85
2022/05/20 15:01:11;;;;;;;1.95;0.98;;;38.70;25.70;;;;;;4815505;29;20038;-88
2022/05/20 15:03:59;;;;;;;3.08;1.20;;;38.90;24.10;;;;;;4775392;30;20041;-86
2022/05/20 15:07:49;;;;;;;2.35;0.70;;;40.10;25.20;;;;;;4765452;30;20031;-89
2022/05/20 15:09:53;;;;;;;2.28;0.98;;;40.90;25.50;;;;;;4769318;29;20067;-84
2022/05/20 15:12:25;;;;;;;2.95;0.90;;;39.10;25.10;;;;;;4762977;30;20047;-86
2022/05/20 15:14:57;;;;;;;2.50;1.00;;;39.10;25.10;;;;;;4777421;30;20044;-83
2022/05/20 15:17:23;;;;;;;1.70;1.02;;;39.20;25.40;;;;;;4761510;30;20109;-82
2022/05/20 15:20:10;;;;;;;1.77;1.20;;;40.00;25.30;;;;;;4775897;30;20031;-85
2022/05/20 15:23:15;;;;;;;2.85;1.13;;;41.40;25.80;;;;;;4760168;30;20028;-81
2022/05/20 15:25:42;;;;;;;2.35;1.10;;;40.20;24.50;;;;;;4759244;30;20031;-82
2022/05/20 15:37:58;;;;;;;1.60;0.90;;;39.30;24.60;;;;;;4780227;30;20038;-83
2022/05/20 15:40:25;;;;;;;2.78;1.05;;;38.90;24.10;;;;;;4814932;29;20089;-82
2022/05/20 15:43:43;;;;;;;;;;;;;;;;;;;;;
2022/05/20 15:46:12;;;;;;;2.28;1.20;;;39.30;24.90;;;;;;4831830;29;20029;-84
2022/05/20 15:48:41;;;;;;;3.25;1.05;;;38.70;25.00;;;;;;4814565;29;20022;-85
2022/05/20 15:51:13;;;;;;;1.95;0.88;;;38.40;25.20;;;;;;4808154;29;20058;-82
2022/05/20 15:54:13;;;;;;;1.92;1.00;;;37.80;25.00;;;;;;4812009;29;20066;-83
2022/05/20 15:57:49;;;;;;;2.60;1.20;;;38.70;25.20;;;;;;4812957;29;20080;-85
2022/05/20 16:00:14;;;;;;;4.60;1.40;;;39.60;26.40;;;;;;4811499;29;20041;-88
2022/05/20 16:02:46;;;;;;;1.98;1.00;;;38.20;25.70;;;;;;4813225;29;20083;-88
2022/05/20 16:06:27;;;;;;;2.67;1.10;;;37.70;26.00;;;;;;4813910;29;20038;-88
2022/05/20 16:09:39;;;;;;;1.42;0.88;;;36.70;25.30;;;;;;4817386;29;20071;-86
2022/05/20 16:12:45;;;;;;;1.88;1.02;;;36.90;24.80;;;;;;4816021;29;20115;-86
2022/05/20 16:15:14;;;;;;;1.70;1.17;;;38.50;26.10;;;;;;4815472;29;20026;-84
2022/05/20 16:17:55;;;;;;;1.73;1.02;;;37.20;25.80;;;;;;4815948;29;20095;-82
2022/05/20 16:21:15;;;;;;;;;;;;;;;;;;;;;
2022/05/20 16:29:17;;;;;;;2.92;1.02;;;36.90;25.90;;;;;;4830385;29;20062;-86
2022/05/20 16:32:03;;;;;;;1.63;0.93;;;36.70;26.00;;;;;;4814536;29;20627;-86
2022/05/20 16:37:14;;;;;;;2.55;1.10;;;37.20;26.30;;;;;;4890371;23;20057;-83
2022/05/20 16:40:26;;;;;;;2.35;1.20;;;35.70;25.60;;;;;;4970791;23;20079;-85
2022/05/20 16:48:18;;;;;;;3.13;1.20;;;34.90;26.60;;;;;;4828934;29;20058;-86
2022/05/20 16:50:45;;;;;;;4.05;1.20;;;34.50;26.80;;;;;;4809854;29;20234;-85
2022/05/20 16:53:13;;;;;;;1.67;1.17;;;34.10;27.00;;;;;;4813171;29;20221;-85
2022/05/20 16:55:39;;;;;;;2.08;1.20;;;33.70;27.20;;;;;;4814291;29;20078;-84
2022/05/20 17:03:35;;;;;;;2.95;1.55;;;32.40;28.60;;;;;;4830963;29;20787;-88
2022/05/20 17:06:16;;;;;;;2.42;1.05;;;32.00;29.50;;;;;;4812955;29;20125;-86
2022/05/20 17:08:52;;;;;;;5.90;1.63;;;32.20;31.10;;;;;;4808250;29;20757;-90
2022/05/20 17:11:26;;;;;;;4.15;1.45;;;31.00;32.30;;;;;;4807860;29;20129;-89
2022/05/20 17:13:52;;;;;;;6.72;1.55;;;30.80;33.30;;;;;;4808049;29;20114;-84
2022/05/20 17:16:17;;;;;;;4.47;1.90;;;29.60;33.80;;;;;;4807490;29;20030;-87
2022/05/20 17:18:46;;;;;;;2.85;1.38;;;29.20;34.50;;;;;;4807650;29;20041;-83
2022/05/20 17:26:42;;;;;;;7.35;3.10;;;28.10;35.90;;;;;;4789335;29;20053;-83
2022/05/20 17:29:08;;;;;;;5.28;2.33;;;;;;;;;;4774172;29;20035;-85
2022/05/20 17:31:36;;;;;;;6.38;2.00;;;27.20;36.70;;;;;;4789828;29;20059;-83
2022/05/20 17:34:02;;;;;;;6.30;1.95;;;27.10;37.50;;;;;;4789486;29;20074;-84
2022/05/20 17:36:28;;;;;;;4.03;1.70;;;26.90;37.40;;;;;;4789584;29;20064;-83
2022/05/20 17:38:53;;;;;;;5.47;2.10;;;26.60;38.00;;;;;;4823153;23;20057;-84
2022/05/20 17:41:19;;;;;;;6.45;2.30;;;26.40;38.80;;;;;;4864756;29;20575;-83
2022/05/20 17:44:05;;;;;;;4.70;1.90;;;26.20;39.90;;;;;;4864913;29;20049;-86
2022/05/20 17:46:36;;;;;;;5.25;1.90;;;25.80;39.80;;;;;;4848503;29;20077;-88
2022/05/20 17:49:17;;;;;;;5.47;2.33;;;24.10;39.70;;;;;;4849452;29;20710;-82
2022/05/20 17:52:21;;;;;;;6.80;2.28;;;24.90;40.40;;;;;;4849686;29;20029;-84
2022/05/20 17:54:56;;;;;;;5.70;2.80;;;24.70;41.00;;;;;;4846373;29;20060;-82
2022/05/20 17:57:30;;;;;;;6.63;2.20;;;24.40;41.20;;;;;;4850884;29;20580;-86
2022/05/20 17:59:58;;;;;;;5.13;1.80;;;24.30;42.10;;;;;;4866965;29;20178;-83
2022/05/20 18:02:33;;;;;;;6.57;2.28;;;23.90;41.60;;;;;;4866423;29;20021;-86
2022/05/20 18:04:58;;;;;;;10.45;3.90;;;23.90;42.70;;;;;;4849496;29;20033;-84
2022/05/20 18:07:27;;;;;;;8.60;3.00;;;23.40;43.40;;;;;;4866462;29;20686;-87
2022/05/20 18:09:53;;;;;;;8.55;2.88;;;23.40;43.90;;;;;;4848544;29;20072;-82
2022/05/20 18:12:21;;;;;;;7.22;2.65;;;23.00;45.60;;;;;;4865442;29;20041;-83
2022/05/20 18:17:46;;;;;;;7.68;2.10;;;22.30;45.90;;;;;;4865745;29;20057;-83
2022/05/20 18:20:33;;;;;;;;;;;22.20;47.00;;;;;;4867039;29;20033;-83
2022/05/20 18:23:11;;;;;;;10.07;2.80;;;22.00;46.90;;;;;;4852342;24;19932;-89
2022/05/20 18:25:46;;;;;;;7.00;2.10;;;21.80;46.80;;;;;;4807150;29;20062;-83
2022/05/20 18:28:49;;;;;;;7.20;2.42;;;21.70;48.10;;;;;;4807912;29;20062;-83
2022/05/20 18:31:42;;;;;;;5.13;2.47;;;21.60;47.40;;;;;;4807524;29;20114;-88
2022/05/20 18:39:17;;;;;;;5.13;1.85;;;21.40;48.00;;;;;;4820650;23;20099;-83
2022/05/20 18:39:56;;;;;;;5.22;2.20;;;21.20;48.60;;;;;;4852872;23;20128;-83
2022/05/20 18:42:31;;;;;;;8.40;2.83;;;21.20;49.70;;;;;;4829975;29;20026;-89
2022/05/20 18:45:14;;;;;;;5.82;1.85;;;21.30;50.00;;;;;;4847049;29;20017;-83
2022/05/20 18:47:55;;;;;;;4.05;2.00;;;20.70;49.90;;;;;;4846538;29;20022;-84
2022/05/20 18:50:24;;;;;;;5.65;2.08;;;20.70;50.00;;;;;;4830659;29;20093;-89
2022/05/20 18:53:00;;;;;;;9.20;5.45;;;20.50;50.50;;;;;;4829806;29;20236;-89
2022/05/20 18:55:41;;;;;;;9.90;5.28;;;20.30;50.60;;;;;;4829593;29;20025;-89
2022/05/20 19:01:25;;;;;;;5.72;2.65;;;19.80;51.50;;;;;;4882046;23;20019;-86
2022/05/20 19:03:51;;;;;;;5.88;2.10;;;21.00;52.70;;;;;;4846355;29;20065;-84
2022/05/20 19:06:20;;;;;;;4.28;1.85;;;19.70;52.70;;;;;;4846517;29;20074;-84
2022/05/20 19:08:49;;;;;;;3.72;1.85;;;19.50;52.50;;;;;;4829130;29;20029;-89
2022/05/20 19:11:19;;;;;;;5.03;1.98;;;19.40;52.50;;;;;;4830520;29;20037;-86
2022/05/20 19:13:45;;;;;;;4.88;2.10;;;19.40;52.50;;;;;;4830932;29;20680;-85
2022/05/20 19:16:11;;;;;;;6.07;2.47;;;19.40;52.80;;;;;;4830262;29;20059;-85
2022/05/20 19:21:24;;;;;;;7.70;2.22;;;19.20;53.00;;;;;;4929536;24;20061;-85
2022/05/20 19:24:38;;;;;;;7.43;2.67;;;19.10;54.20;;;;;;4846377;29;20061;-89
2022/05/20 19:27:13;;;;;;;4.70;2.17;;;20.40;54.40;;;;;;4770822;30;20031;-89
2022/05/20 19:30:03;;;;;;;6.40;2.35;;;19.00;54.30;;;;;;4909510;23;20069;-86
2022/05/20 19:32:44;;;;;;;6.25;2.10;;;19.20;55.20;;;;;;4832672;29;20119;-84
2022/05/20 19:35:28;;;;;;;5.43;2.35;;;18.60;54.10;;;;;;4849669;29;20044;-88
2022/05/20 19:38:11;;;;;;;9.05;2.72;;;18.60;55.40;;;;;;4832949;29;20037;-85
2022/05/20 19:40:50;;;;;;;7.75;2.30;;;18.50;56.90;;;;;;4833203;29;20018;-87
2022/05/20 19:43:31;;;;;;;7.22;2.08;;;18.40;57.70;;;;;;4809908;29;20065;-87
2022/05/20 19:45:57;;;;;;;5.57;2.17;;;18.30;56.40;;;;;;4809273;29;20129;-84
2022/05/20 19:48:23;;;;;;;9.63;2.60;;;18.20;56.30;;;;;;4808735;29;20741;-81
2022/05/20 19:50:50;;;;;;;8.70;2.25;;;18.20;56.90;;;;;;4808705;29;20189;-86
2022/05/20 19:53:16;;;;;;;6.75;2.72;;;18.00;57.10;;;;;;4793519;29;20124;-84
2022/05/20 19:55:45;;;;;;;5.03;2.13;;;17.90;57.70;;;;;;4793953;29;20330;-86
2022/05/20 20:00:56;;;;;;;6.68;2.50;;;17.70;58.40;;;;;;4809720;29;20596;-88
2022/05/20 20:03:30;;;;;;;5.53;2.15;;;17.70;57.50;;;;;;4808801;29;20030;-85
2022/05/20 20:06:00;;;;;;;6.15;2.45;;;17.70;57.60;;;;;;4793074;29;20501;-84
2022/05/20 20:08:42;;;;;;;7.93;2.70;;;17.60;58.20;;;;;;4809086;29;20035;-84
2022/05/20 20:11:20;;;;;;;7.07;2.72;;;18.20;58.90;;;;;;4811985;29;20125;-83
2022/05/20 20:16:22;;;;;;;5.80;2.65;;;17.40;59.10;;;;;;4982043;23;20057;-84
2022/05/20 20:18:52;;;;;;;6.13;2.75;;;18.00;61.90;;;;;;4850533;29;20059;-87
2022/05/20 20:26:49;;;;;;;7.03;2.63;;;;;;;;;;4870814;23;20056;-86
2022/05/20 20:29:17;;;;;;;8.55;3.00;;;17.00;60.60;;;;;;4833351;29;20037;-84
2022/05/20 20:31:44;;;;;;;6.68;2.80;;;16.90;61.30;;;;;;4847698;29;20738;-84
2022/05/20 20:34:31;;;;;;;11.50;2.70;;;17.00;61.70;;;;;;4847842;29;20154;-85
2022/05/20 20:39:25;;;;;;;6.20;2.40;;;16.90;61.80;;;;;;4868905;23;20065;-86
2022/05/20 20:41:51;;;;;;;8.93;2.85;;;16.70;62.00;;;;;;4830846;29;20109;-86
2022/05/20 20:44:34;;;;;;;10.93;3.13;;;16.60;62.50;;;;;;4854134;23;20061;-86
2022/05/20 20:49:39;;;;;;;6.35;2.20;;;16.60;64.00;;;;;;4885686;24;20309;-85
2022/05/20 20:52:23;;;;;;;6.20;2.65;;;16.50;63.90;;;;;;4830604;29;20048;-86
2022/05/20 20:54:54;;;;;;;;;;;16.50;65.20;;;;;;4831377;29;20346;-85
2022/05/20 20:57:35;;;;;;;6.10;2.70;;;16.40;64.40;;;;;;4830361;29;19983;-85
2022/05/20 21:00:02;;;;;;;8.07;2.50;;;17.60;66.00;;;;;;4846223;29;20108;-85
2022/05/20 21:02:27;;;;;;;7.05;2.97;;;16.40;65.50;;;;;;4971500;24;20108;-85
2022/05/20 21:05:20;;;;;;;6.13;3.13;;;16.30;66.30;;;;;;4811498;29;20545;-83
2022/05/20 21:16:24;;;;;;;9.40;3.45;;;;;;;;;;5069143;23;1157604;-84
2022/05/20 21:18:52;;;;;;;6.97;3.17;;;16.10;67.70;;;;;;4846650;29;20578;-85
2022/05/20 21:21:21;;;;;;;8.52;2.70;;;16.30;69.80;;;;;;4846642;29;20201;-83
2022/05/20 21:23:47;;;;;;;14.13;3.25;;;16.10;68.80;;;;;;4850046;29;20213;-86
2022/05/20 21:26:16;;;;;;;7.45;3.38;;;16.00;69.80;;;;;;4836867;29;20029;-85
2022/05/20 21:28:44;;;;;;;8.15;3.28;;;16.00;69.90;;;;;;4846058;29;20041;-85
2022/05/20 21:31:42;;;;;;;8.82;3.47;;;15.90;70.50;;;;;;4832160;29;20094;-85
2022/05/20 21:34:08;;;;;;;8.05;3.05;;;16.60;71.50;;;;;;4829667;29;20037;-85
2022/05/20 21:36:40;;;;;;;7.80;3.05;;;15.90;71.60;;;;;;4846424;29;20033;-87
2022/05/20 21:39:40;;;;;;;10.20;3.20;;;16.40;72.30;;;;;;4829558;29;20037;-86
2022/05/20 21:42:44;;;;;;;7.15;3.17;;;15.80;72.30;;;;;;4806963;29;20073;-88
2022/05/20 21:45:11;;;;;;;;;;;15.80;73.00;;;;;;4806959;29;20343;-85
2022/05/20 21:59:39;;;;;;;4.93;2.65;;;15.30;77.10;;;;;;5175982;23;20412;-85
2022/05/20 22:15:36;;;;;;;8.82;3.08;;;14.90;82.00;;;;;;5456397;23;20069;-84
